createdAt,value
2016-10-12T00:00:53.115Z,94.31
2016-10-12T00:02:03.907Z,93.73
2016-10-12T00:03:14.951Z,94.59
2016-10-12T00:04:26.027Z,94.21
2016-10-12T00:05:37.160Z,94.21
2016-10-12T00:07:29.822Z,94.02
2016-10-12T00:08:40.585Z,94.21
2016-10-12T00:09:51.608Z,94.49
2016-10-12T00:11:02.191Z,94.21
2016-10-12T00:12:12.765Z,94.88
2016-10-12T00:13:23.459Z,94.84
2016-10-12T00:14:34.062Z,94.93
2016-10-12T00:15:44.642Z,94.88
2016-10-12T00:16:55.163Z,94.49
2016-10-12T00:18:05.726Z,94.31
2016-10-12T00:19:16.882Z,95.07
2016-10-12T00:20:27.487Z,94.31
2016-10-12T00:21:38.008Z,94.02
2016-10-12T00:22:49.093Z,94.88
2016-10-12T00:23:59.636Z,94.88
2016-10-12T00:25:10.680Z,93.82
2016-10-12T00:26:21.764Z,94.12
2016-10-12T00:27:32.825Z,94.69
2016-10-12T00:28:43.929Z,93.73
2016-10-12T00:29:54.487Z,94.31
2016-10-12T00:31:06.121Z,93.73
2016-10-12T00:32:16.676Z,94.02
2016-10-12T00:33:27.236Z,93.06
2016-10-12T00:34:37.816Z,93.35
2016-10-12T00:35:48.384Z,92.96
2016-10-12T00:36:59.637Z,92.58
2016-10-12T00:38:10.259Z,92.48
2016-10-12T00:39:20.876Z,92.19
2016-10-12T00:40:31.467Z,92.39
2016-10-12T00:41:42.021Z,92.68
2016-10-12T00:42:52.806Z,92.39
2016-10-12T00:44:03.405Z,92.96
2016-10-12T00:45:14.060Z,92.48
2016-10-12T00:46:24.687Z,92.29
2016-10-12T00:47:35.316Z,92.39
2016-10-12T00:48:46.144Z,92.48
2016-10-12T00:49:56.779Z,91.72
2016-10-12T00:51:07.355Z,91.91
2016-10-12T00:52:18.057Z,91.81
2016-10-12T00:53:31.697Z,92.19
2016-10-12T00:54:42.341Z,92.39
2016-10-12T00:55:52.878Z,91.72
2016-10-12T00:57:03.461Z,92
2016-10-12T00:58:14.052Z,91.81
2016-10-12T00:59:24.634Z,92.29
2016-10-12T01:00:35.370Z,92
2016-10-12T01:01:45.935Z,91.91
2016-10-12T01:02:56.530Z,92.68
2016-10-12T01:04:07.115Z,92.58
2016-10-12T01:05:17.706Z,92.24
2016-10-12T01:06:28.288Z,92.48
2016-10-12T01:07:38.954Z,92.48
2016-10-12T01:08:49.558Z,92.72
2016-10-12T01:10:00.155Z,93.11
2016-10-12T01:11:10.751Z,92.68
2016-10-12T01:12:21.493Z,93.01
2016-10-12T01:13:32.073Z,92.54
2016-10-12T01:14:42.673Z,92.86
2016-10-12T01:15:53.261Z,93.06
2016-10-12T01:17:03.863Z,93.21
2016-10-12T01:18:14.456Z,94.07
2016-10-12T01:19:25.044Z,93.11
2016-10-12T01:20:35.639Z,94.17
2016-10-12T01:21:46.238Z,95.03
2016-10-12T01:22:56.824Z,95.12
2016-10-12T01:24:07.517Z,95.21
2016-10-12T01:25:18.103Z,95.6
2016-10-12T01:26:28.707Z,95.6
2016-10-12T01:27:39.297Z,95.12
2016-10-12T01:28:49.874Z,95.03
2016-10-12T01:30:00.488Z,95.41
2016-10-12T01:31:11.016Z,94.64
2016-10-12T01:32:21.567Z,95.31
2016-10-12T01:33:32.166Z,95.75
2016-10-12T01:34:42.760Z,96.22
2016-10-12T01:35:53.482Z,95.94
2016-10-12T01:37:04.033Z,96.51
2016-10-12T01:38:14.545Z,96.8
2016-10-12T01:39:25.127Z,96.32
2016-10-12T01:40:35.662Z,95.94
2016-10-12T01:41:46.598Z,96.13
2016-10-12T01:42:57.128Z,96.03
2016-10-12T01:44:07.677Z,95.94
2016-10-12T01:45:18.200Z,95.89
2016-10-12T01:46:28.728Z,96.03
2016-10-12T01:47:39.377Z,96.22
2016-10-12T01:48:49.948Z,96.22
2016-10-12T01:50:00.465Z,96.42
2016-10-12T01:51:11.015Z,96.7
2016-10-12T01:52:21.603Z,96.61
2016-10-12T01:53:32.350Z,96.32
2016-10-12T01:54:42.909Z,96.42
2016-10-12T01:55:53.431Z,96.61
2016-10-12T01:57:03.974Z,97.09
2016-10-12T01:58:14.503Z,96.99
2016-10-12T01:59:25.525Z,97.18
2016-10-12T02:00:36.106Z,97.28
2016-10-12T02:01:46.696Z,97.47
2016-10-12T02:02:57.231Z,97.09
2016-10-12T02:04:07.823Z,97.18
2016-10-12T02:05:18.478Z,97.66
2016-10-12T02:06:29.000Z,98.14
2016-10-12T02:07:39.541Z,97.76
2016-10-12T02:08:50.419Z,97.47
2016-10-12T02:10:00.945Z,97.85
2016-10-12T02:11:11.487Z,97.66
2016-10-12T02:12:22.039Z,98.14
2016-10-12T02:13:32.577Z,97.95
2016-10-12T02:14:43.147Z,98.14
2016-10-12T02:15:53.708Z,97.95
2016-10-12T02:17:04.367Z,98.14
2016-10-12T02:18:14.850Z,98.14
2016-10-12T02:19:25.389Z,98.52
2016-10-12T02:20:35.891Z,98.91
2016-10-12T02:21:46.393Z,99.01
2016-10-12T02:22:57.061Z,98.72
2016-10-12T02:24:07.572Z,99.29
2016-10-12T02:25:18.487Z,99.19
2016-10-12T02:26:29.373Z,98.91
2016-10-12T02:27:39.904Z,98.72
2016-10-12T02:28:50.589Z,99.39
2016-10-12T02:30:01.498Z,98.91
2016-10-12T02:31:12.045Z,98.81
2016-10-12T02:32:22.590Z,98.43
2016-10-12T02:33:33.132Z,99.19
2016-10-12T02:34:43.694Z,98.52
2016-10-12T02:35:54.279Z,99.29
2016-10-12T02:37:04.797Z,99.19
2016-10-12T02:38:15.825Z,99.01
2016-10-12T02:39:26.369Z,98.91
2016-10-12T02:40:37.068Z,99.01
2016-10-12T02:41:47.595Z,99.01
2016-10-12T02:42:58.563Z,98.33
2016-10-12T02:44:09.633Z,98.33
2016-10-12T02:45:20.160Z,98.14
2016-10-12T02:46:31.178Z,98.24
2016-10-12T02:47:42.235Z,98.62
2016-10-12T02:48:52.767Z,98.33
2016-10-12T02:50:03.306Z,98.43
2016-10-12T02:51:13.882Z,98.33
2016-10-12T02:52:24.550Z,98.43
2016-10-12T02:53:35.061Z,97.85
2016-10-12T02:54:45.602Z,98.14
2016-10-12T02:55:56.145Z,97.66
2016-10-12T02:57:06.686Z,97.95
2016-10-12T02:58:17.268Z,98.14
2016-10-12T02:59:27.796Z,98.05
2016-10-12T03:00:38.333Z,97.66
2016-10-12T03:01:48.872Z,97.76
2016-10-12T03:02:59.408Z,98.43
2016-10-12T03:04:10.538Z,97.95
2016-10-12T03:05:21.097Z,97.85
2016-10-12T03:06:31.636Z,97.85
2016-10-12T03:07:42.196Z,97.56
2016-10-12T03:08:53.135Z,97.76
2016-10-12T03:10:03.783Z,98.14
2016-10-12T03:11:14.739Z,98.05
2016-10-12T03:12:25.272Z,97.95
2016-10-12T03:13:35.799Z,97.76
2016-10-12T03:14:46.380Z,98.24
2016-10-12T03:15:57.443Z,98.81
2016-10-12T03:17:07.996Z,98.91
2016-10-12T03:18:18.513Z,98.33
2016-10-12T03:19:29.019Z,98.91
2016-10-12T03:20:39.520Z,98.05
2016-10-12T03:21:50.254Z,98.33
2016-10-12T03:23:00.817Z,98.33
2016-10-12T03:24:11.388Z,98.52
2016-10-12T03:25:21.946Z,98.62
2016-10-12T03:26:32.479Z,98.72
2016-10-12T03:27:43.097Z,98.62
2016-10-12T03:28:54.015Z,98.91
2016-10-12T03:30:05.557Z,98.62
2016-10-12T03:31:16.045Z,99.24
2016-10-12T03:32:27.573Z,99.15
2016-10-12T03:33:38.240Z,99.24
2016-10-12T03:34:49.304Z,99.99
2016-10-12T03:35:59.863Z,99.99
2016-10-12T03:37:10.868Z,99.82
2016-10-12T03:38:21.434Z,99.19
2016-10-12T03:39:32.462Z,99.48
2016-10-12T03:40:43.020Z,99.58
2016-10-12T03:41:54.004Z,99.48
2016-10-12T03:43:05.018Z,99.1
2016-10-12T03:44:16.104Z,99.1
2016-10-12T03:45:27.261Z,99.1
2016-10-12T03:46:38.244Z,99.29
2016-10-12T03:47:49.251Z,98.72
2016-10-12T03:49:00.216Z,98.33
2016-10-12T03:50:11.211Z,98.91
2016-10-12T03:51:21.853Z,98.52
2016-10-12T03:52:32.423Z,98.62
2016-10-12T03:53:43.423Z,98.62
2016-10-12T03:54:53.941Z,99.29
2016-10-12T03:56:04.498Z,99.29
2016-10-12T03:57:15.136Z,99.19
2016-10-12T03:58:26.051Z,99.63
2016-10-12T03:59:36.594Z,98.62
2016-10-12T04:00:47.143Z,99.39
2016-10-12T04:01:58.197Z,99.43
2016-10-12T04:03:08.746Z,99.24
2016-10-12T04:04:19.298Z,99.05
2016-10-12T04:05:29.846Z,99.24
2016-10-12T04:06:40.433Z,99.72
2016-10-12T04:07:51.480Z,99.99
2016-10-12T04:09:02.655Z,99.91
2016-10-12T04:10:13.190Z,99.99
2016-10-12T04:11:24.695Z,99.63
2016-10-12T04:12:35.277Z,99.63
2016-10-12T04:13:45.840Z,99.99
2016-10-12T04:14:56.473Z,99.91
2016-10-12T04:16:06.990Z,99.91
2016-10-12T04:17:17.551Z,99.99
2016-10-12T04:18:28.581Z,99.99
2016-10-12T04:19:39.123Z,99.99
2016-10-12T04:20:49.755Z,99.99
2016-10-12T04:22:00.317Z,99.99
2016-10-12T04:23:10.855Z,99.99
2016-10-12T04:24:21.445Z,99.99
2016-10-12T04:25:31.990Z,99.99
2016-10-12T04:26:42.532Z,99.99
2016-10-12T04:27:53.096Z,99.99
2016-10-12T04:29:03.622Z,99.99
2016-10-12T04:30:14.133Z,99.99
2016-10-12T04:31:24.673Z,99.91
2016-10-12T04:32:35.302Z,99.99
2016-10-12T04:33:45.897Z,99.99
2016-10-12T04:34:56.437Z,99.99
2016-10-12T04:36:07.380Z,99.99
2016-10-12T04:37:17.942Z,99.99
2016-10-12T04:38:28.631Z,99.63
2016-10-12T04:39:39.166Z,99.82
2016-10-12T04:40:49.719Z,99.82
2016-10-12T04:42:00.244Z,99.48
2016-10-12T04:43:10.828Z,99.91
2016-10-12T04:44:21.503Z,99.68
2016-10-12T04:45:32.057Z,99.53
2016-10-12T04:46:42.615Z,99.91
2016-10-12T04:47:53.135Z,99.24
2016-10-12T04:49:03.665Z,98.81
2016-10-12T04:50:14.222Z,99.1
2016-10-12T04:51:24.759Z,99.39
2016-10-12T04:52:35.314Z,99.39
2016-10-12T04:53:45.852Z,99.39
2016-10-12T04:54:56.431Z,99.19
2016-10-12T04:56:07.074Z,99.34
2016-10-12T04:57:18.094Z,99.82
2016-10-12T04:58:28.652Z,99.91
2016-10-12T04:59:39.194Z,99.91
2016-10-12T05:00:49.688Z,99.19
2016-10-12T05:02:00.321Z,99.48
2016-10-12T05:03:10.857Z,99.91
2016-10-12T05:04:21.431Z,99.82
2016-10-12T05:05:32.793Z,99.39
2016-10-12T05:06:43.293Z,99.53
2016-10-12T05:07:53.929Z,99.58
2016-10-12T05:09:04.519Z,99.48
2016-10-12T05:10:15.050Z,99.77
2016-10-12T05:11:26.055Z,99.82
2016-10-12T05:12:36.587Z,99.72
2016-10-12T05:13:47.162Z,99.99
2016-10-12T05:14:57.790Z,99.63
2016-10-12T05:16:08.749Z,99.72
2016-10-12T05:17:19.283Z,99.43
2016-10-12T05:18:29.846Z,99.87
2016-10-12T05:19:40.579Z,99.96
2016-10-12T05:20:51.129Z,99.99
2016-10-12T05:22:01.666Z,99.53
2016-10-12T05:23:12.214Z,99.77
2016-10-12T05:24:22.756Z,99.01
2016-10-12T05:25:33.431Z,99.19
2016-10-12T05:26:43.944Z,99.19
2016-10-12T05:27:54.987Z,99.1
2016-10-12T05:29:05.536Z,99.58
2016-10-12T05:30:16.087Z,99.19
2016-10-12T05:31:26.767Z,99.05
2016-10-12T05:32:37.324Z,99.05
2016-10-12T05:33:47.911Z,98.96
2016-10-12T05:34:58.466Z,99.05
2016-10-12T05:36:09.026Z,99.15
2016-10-12T05:37:19.707Z,99.34
2016-10-12T05:38:30.217Z,99.43
2016-10-12T05:39:40.753Z,99.43
2016-10-12T05:40:51.461Z,99.91
2016-10-12T05:42:01.994Z,99.63
2016-10-12T05:43:12.659Z,99.34
2016-10-12T05:44:23.244Z,99.63
2016-10-12T05:45:33.782Z,99.63
2016-10-12T05:46:44.337Z,99.63
2016-10-12T05:47:54.883Z,99.99
2016-10-12T05:49:05.560Z,99.82
2016-10-12T05:50:16.103Z,99.99
2016-10-12T05:51:26.651Z,99.99
2016-10-12T05:52:37.176Z,99.99
2016-10-12T05:53:47.724Z,99.99
2016-10-12T05:54:58.652Z,99.82
2016-10-12T05:56:09.242Z,99.99
2016-10-12T05:57:20.247Z,99.99
2016-10-12T05:58:30.844Z,99.99
2016-10-12T05:59:41.390Z,99.99
2016-10-12T06:00:52.479Z,99.99
2016-10-12T06:02:03.065Z,99.99
2016-10-12T06:03:14.024Z,99.99
2016-10-12T06:04:24.563Z,99.99
2016-10-12T06:05:35.074Z,99.99
2016-10-12T06:06:45.789Z,99.99
2016-10-12T06:07:56.368Z,99.99
2016-10-12T06:09:06.883Z,99.99
2016-10-12T06:10:17.456Z,99.99
2016-10-12T06:11:28.041Z,99.99
2016-10-12T06:12:38.640Z,99.99
2016-10-12T06:13:49.191Z,99.99
2016-10-12T06:14:59.741Z,99.99
2016-10-12T06:16:10.265Z,99.99
2016-10-12T06:17:21.149Z,99.99
2016-10-12T06:18:31.666Z,99.99
2016-10-12T06:19:42.242Z,99.99
2016-10-12T06:20:52.760Z,99.99
2016-10-12T06:22:03.369Z,99.99
2016-10-12T06:23:13.915Z,99.99
2016-10-12T06:24:24.526Z,99.99
2016-10-12T06:25:35.083Z,99.99
2016-10-12T06:26:45.635Z,99.99
2016-10-12T06:27:56.181Z,99.99
2016-10-12T06:29:07.215Z,99.99
2016-10-12T06:30:17.871Z,99.99
2016-10-12T06:31:28.898Z,99.99
2016-10-12T06:32:39.469Z,99.99
2016-10-12T06:33:50.428Z,99.99
2016-10-12T06:35:01.486Z,99.99
2016-10-12T06:36:12.134Z,99.72
2016-10-12T06:37:22.674Z,99.99
2016-10-12T06:38:33.232Z,99.99
2016-10-12T06:39:44.116Z,99.82
2016-10-12T06:40:55.081Z,99.99
2016-10-12T06:42:06.007Z,99.99
2016-10-12T06:43:16.520Z,99.99
2016-10-12T06:44:27.070Z,99.99
2016-10-12T06:45:37.629Z,99.99
2016-10-12T06:46:48.150Z,99.99
2016-10-12T06:47:58.748Z,99.99
2016-10-12T06:49:09.273Z,99.99
2016-10-12T06:50:19.782Z,99.99
2016-10-12T06:51:30.298Z,99.99
2016-10-12T06:52:40.830Z,99.99
2016-10-12T06:53:51.898Z,99.99
2016-10-12T06:55:02.474Z,99.99
2016-10-12T06:56:13.040Z,99.99
2016-10-12T06:57:23.570Z,99.99
2016-10-12T06:58:34.084Z,99.99
2016-10-12T06:59:44.694Z,99.99
2016-10-12T07:00:55.220Z,99.99
2016-10-12T07:02:06.283Z,99.99
2016-10-12T07:03:16.820Z,99.99
2016-10-12T07:04:27.333Z,99.99
2016-10-12T07:05:37.794Z,99.99
2016-10-12T07:06:48.280Z,99.99
2016-10-12T07:07:58.778Z,99.99
2016-10-12T07:09:09.285Z,99.99
2016-10-12T07:10:19.836Z,99.99
2016-10-12T07:11:30.871Z,99.99
2016-10-12T07:12:41.388Z,99.99
2016-10-12T07:13:51.938Z,99.99
2016-10-12T07:15:02.483Z,99.99
2016-10-12T07:16:12.997Z,99.99
2016-10-12T07:17:24.085Z,99.99
2016-10-12T07:18:34.618Z,99.99
2016-10-12T07:19:45.135Z,99.99
2016-10-12T07:20:55.639Z,99.99
2016-10-12T07:22:06.174Z,99.99
2016-10-12T07:23:16.710Z,99.99
2016-10-12T07:24:27.596Z,99.99
2016-10-12T07:25:38.146Z,99.99
2016-10-12T07:26:48.637Z,99.99
2016-10-12T07:27:59.144Z,99.99
2016-10-12T07:29:10.169Z,99.99
2016-10-12T07:30:20.689Z,99.99
2016-10-12T07:31:31.221Z,99.99
2016-10-12T07:32:41.709Z,99.99
2016-10-12T07:33:52.230Z,99.99
2016-10-12T07:35:03.323Z,99.99
2016-10-12T07:36:13.824Z,99.99
2016-10-12T07:37:24.344Z,99.99
2016-10-12T07:38:34.803Z,99.99
2016-10-12T07:39:45.293Z,99.99
2016-10-12T07:40:55.874Z,99.99
2016-10-12T07:42:06.387Z,99.99
2016-10-12T07:43:17.386Z,99.99
2016-10-12T07:44:27.889Z,99.99
2016-10-12T07:45:38.400Z,99.99
2016-10-12T07:46:48.889Z,99.99
2016-10-12T07:47:59.448Z,99.99
2016-10-12T07:49:09.927Z,99.99
2016-10-12T07:50:20.426Z,99.99
2016-10-12T07:51:30.926Z,99.99
2016-10-12T07:52:41.525Z,99.99
2016-10-12T07:53:52.006Z,99.99
2016-10-12T07:55:02.507Z,99.99
2016-10-12T07:56:13.020Z,99.99
2016-10-12T07:57:23.557Z,99.99
2016-10-12T07:58:34.207Z,99.99
2016-10-12T07:59:44.716Z,99.99
2016-10-12T08:00:55.179Z,99.99
2016-10-12T08:02:05.677Z,99.99
2016-10-12T08:03:17.215Z,99.99
2016-10-12T08:04:27.782Z,99.99
2016-10-12T08:05:38.274Z,99.99
2016-10-12T08:06:48.745Z,99.99
2016-10-12T08:07:59.238Z,99.99
2016-10-12T08:09:09.712Z,99.99
2016-10-12T08:10:20.204Z,99.99
2016-10-12T08:11:30.713Z,99.99
2016-10-12T08:12:41.222Z,99.99
2016-10-12T08:13:52.103Z,99.99
2016-10-12T08:15:02.659Z,99.99
2016-10-12T08:16:13.263Z,99.99
2016-10-12T08:17:23.784Z,99.99
2016-10-12T08:18:34.295Z,99.99
2016-10-12T08:19:44.837Z,99.99
2016-10-12T08:20:55.335Z,99.99
2016-10-12T08:22:05.954Z,99.99
2016-10-12T08:23:16.429Z,99.99
2016-10-12T08:24:26.918Z,99.99
2016-10-12T08:25:37.438Z,99.99
2016-10-12T08:26:47.964Z,99.99
2016-10-12T08:27:58.565Z,99.99
2016-10-12T08:29:09.069Z,99.99
2016-10-12T08:30:19.572Z,99.99
2016-10-12T08:31:30.099Z,99.99
2016-10-12T08:32:40.622Z,99.99
2016-10-12T08:33:51.107Z,99.99
2016-10-12T08:35:01.633Z,99.99
2016-10-12T08:36:12.520Z,99.99
2016-10-12T08:37:23.014Z,99.99
2016-10-12T08:38:33.500Z,99.99
2016-10-12T08:39:44.064Z,99.99
2016-10-12T08:40:54.575Z,99.99
2016-10-12T08:42:05.059Z,99.99
2016-10-12T08:43:15.530Z,99.99
2016-10-12T08:44:26.036Z,99.99
2016-10-12T08:45:36.600Z,99.99
2016-10-12T08:46:47.099Z,99.99
2016-10-12T08:47:57.655Z,99.99
2016-10-12T08:49:08.151Z,99.99
2016-10-12T08:50:18.730Z,99.99
2016-10-12T08:51:29.334Z,99.99
2016-10-12T08:52:39.824Z,99.99
2016-10-12T08:53:50.339Z,99.99
2016-10-12T08:55:00.808Z,99.99
2016-10-12T08:56:11.292Z,99.99
2016-10-12T08:57:21.878Z,99.99
2016-10-12T08:58:32.374Z,99.99
2016-10-12T08:59:42.909Z,99.99
2016-10-12T09:00:53.400Z,99.99
2016-10-12T09:02:03.886Z,99.99
2016-10-12T09:03:14.485Z,99.99
2016-10-12T09:04:25.342Z,99.99
2016-10-12T09:05:35.832Z,99.99
2016-10-12T09:06:46.328Z,99.99
2016-10-12T09:07:56.828Z,99.99
2016-10-12T09:09:07.899Z,99.99
2016-10-12T09:10:18.435Z,99.99
2016-10-12T09:11:28.951Z,99.99
2016-10-12T09:12:39.431Z,99.99
2016-10-12T09:13:49.977Z,99.99
2016-10-12T09:15:00.537Z,99.99
2016-10-12T09:16:11.052Z,99.99
2016-10-12T09:17:21.578Z,99.99
2016-10-12T09:18:32.033Z,99.99
2016-10-12T09:19:42.520Z,99.99
2016-10-12T09:20:53.487Z,99.99
2016-10-12T09:22:03.972Z,99.99
2016-10-12T09:23:14.494Z,99.99
2016-10-12T09:24:25.013Z,99.99
2016-10-12T09:25:35.534Z,99.96
2016-10-12T09:26:46.555Z,99.99
2016-10-12T09:27:57.060Z,99.99
2016-10-12T09:29:07.555Z,99.48
2016-10-12T09:30:18.019Z,99.01
2016-10-12T09:31:28.541Z,99.1
2016-10-12T09:32:39.166Z,98.24
2016-10-12T09:33:49.657Z,97.95
2016-10-12T09:35:00.162Z,97.81
2016-10-12T09:36:10.664Z,98
2016-10-12T09:37:21.143Z,97.9
2016-10-12T09:38:31.637Z,97.33
2016-10-12T09:39:42.130Z,96.94
2016-10-12T09:40:52.618Z,96.37
2016-10-12T09:42:03.158Z,96.27
2016-10-12T09:43:13.612Z,96.75
2016-10-12T09:44:24.211Z,95.51
2016-10-12T09:45:34.701Z,95.55
2016-10-12T09:46:45.195Z,96.42
2016-10-12T09:47:55.695Z,95.17
2016-10-12T09:49:06.206Z,94.59
2016-10-12T09:50:17.241Z,93.82
2016-10-12T09:51:28.131Z,92.33
2016-10-12T09:52:38.675Z,89.79
2016-10-12T09:53:49.206Z,85.65
2016-10-12T09:54:59.718Z,81.79
2016-10-12T09:56:10.308Z,78.36
2016-10-12T09:57:20.802Z,77.83
2016-10-12T09:58:31.341Z,76.71
2016-10-12T09:59:41.862Z,75.84
2016-10-12T10:00:52.373Z,75.2
2016-10-12T10:02:02.880Z,74.91
2016-10-12T10:03:13.362Z,74.43
2016-10-12T10:04:24.232Z,73.6
2016-10-12T10:05:34.718Z,71.86
2016-10-12T10:06:45.632Z,70.2
2016-10-12T10:07:56.259Z,68.94
2016-10-12T10:09:06.791Z,68.3
2016-10-12T10:10:30.220Z,65.24
2016-10-12T10:11:40.751Z,65.47
2016-10-12T10:12:51.236Z,65.01
2016-10-12T10:14:01.835Z,64.92
2016-10-12T10:15:12.361Z,62.79
2016-10-12T10:16:22.863Z,63.66
2016-10-12T10:17:33.852Z,64.24
2016-10-12T10:18:44.445Z,62.34
2016-10-12T10:19:54.955Z,60.72
2016-10-12T10:21:05.519Z,59.71
2016-10-12T10:22:16.038Z,60.65
2016-10-12T10:23:26.579Z,59.07
2016-10-12T10:24:37.068Z,59.75
2016-10-12T10:25:47.637Z,60.33
2016-10-12T10:26:58.184Z,60.07
2016-10-12T10:28:08.738Z,57.45
2016-10-12T10:29:19.321Z,58.45
2016-10-12T10:30:29.963Z,58.48
2016-10-12T10:31:40.552Z,56.83
2016-10-12T10:32:51.110Z,57.51
2016-10-12T10:34:01.679Z,54.14
2016-10-12T10:35:12.174Z,54.99
2016-10-12T10:36:23.221Z,54.9
2016-10-12T10:37:33.809Z,55.83
2016-10-12T10:38:44.357Z,55.93
2016-10-12T10:39:54.892Z,57.09
2016-10-12T10:41:05.439Z,56.13
2016-10-12T10:42:16.095Z,54.41
2016-10-12T10:43:26.725Z,53.47
2016-10-12T10:44:37.301Z,50.7
2016-10-12T10:45:47.886Z,49.76
2016-10-12T10:46:58.406Z,51.11
2016-10-12T10:48:09.083Z,48.34
2016-10-12T10:49:20.050Z,47.3
2016-10-12T10:50:30.625Z,47.96
2016-10-12T10:51:41.172Z,47.56
2016-10-12T10:52:51.739Z,47.98
2016-10-12T10:54:02.288Z,47.2
2016-10-12T10:55:12.813Z,47.1
2016-10-12T10:56:23.411Z,46.34
2016-10-12T10:57:33.989Z,44.9
2016-10-12T10:58:44.522Z,45.42
2016-10-12T10:59:55.206Z,45.76
2016-10-12T11:01:05.789Z,45.84
2016-10-12T11:02:16.665Z,45.25
2016-10-12T11:03:27.212Z,45.2
2016-10-12T11:04:37.772Z,44.46
2016-10-12T11:05:48.447Z,44.81
2016-10-12T11:06:59.339Z,45.86
2016-10-12T11:08:09.919Z,45.25
2016-10-12T11:09:20.446Z,44.28
2016-10-12T11:10:31.041Z,44.1
2016-10-12T11:11:41.706Z,44.42
2016-10-12T11:12:52.284Z,44.03
2016-10-12T11:14:02.863Z,42.1
2016-10-12T11:15:13.447Z,43.39
2016-10-12T11:16:24.010Z,43.27
2016-10-12T11:17:34.590Z,44.03
2016-10-12T11:18:45.135Z,44.01
2016-10-12T11:19:55.742Z,44.49
2016-10-12T11:21:06.353Z,44.69
2016-10-12T11:22:16.904Z,43.91
2016-10-12T11:23:27.636Z,44.89
2016-10-12T11:24:38.223Z,44.32
2016-10-12T11:25:48.790Z,44.59
2016-10-12T11:26:59.349Z,43.05
2016-10-12T11:28:09.899Z,42.38
2016-10-12T11:29:20.546Z,41.52
2016-10-12T11:30:31.162Z,42.61
2016-10-12T11:31:41.724Z,40.95
2016-10-12T11:32:52.262Z,40.99
2016-10-12T11:34:02.809Z,39.55
2016-10-12T11:35:13.358Z,41.02
2016-10-12T11:36:23.927Z,41.17
2016-10-12T11:37:34.464Z,40.27
2016-10-12T11:38:45.018Z,40.66
2016-10-12T11:39:55.598Z,40.68
2016-10-12T11:41:06.296Z,40.88
2016-10-12T11:42:16.880Z,38.63
2016-10-12T11:43:27.459Z,39.33
2016-10-12T11:44:38.001Z,38.4
2016-10-12T11:45:48.570Z,37.24
2016-10-12T11:46:59.261Z,35.87
2016-10-12T11:48:10.295Z,36.2
2016-10-12T11:49:20.896Z,35.21
2016-10-12T11:50:31.462Z,35.89
2016-10-12T11:51:42.030Z,36.46
2016-10-12T11:52:52.683Z,33.1
2016-10-12T11:54:03.242Z,33.7
2016-10-12T11:55:13.785Z,35.16
2016-10-12T11:56:24.846Z,33.67
2016-10-12T11:57:35.453Z,33.5
2016-10-12T11:58:46.053Z,32.35
2016-10-12T11:59:56.575Z,32.46
2016-10-12T12:01:07.109Z,31.3
2016-10-12T12:02:17.703Z,30.8
2016-10-12T12:03:28.254Z,32.17
2016-10-12T12:04:38.913Z,30.52
2016-10-12T12:05:49.397Z,31.4
2016-10-12T12:07:00.301Z,31.57
2016-10-12T12:08:10.816Z,31.29
2016-10-12T12:09:21.321Z,33.23
2016-10-12T12:10:32.404Z,33.58
2016-10-12T12:11:43.284Z,33.87
2016-10-12T12:12:53.823Z,34.74
2016-10-12T12:14:04.327Z,32.6
2016-10-12T12:15:16.149Z,33.65
2016-10-12T12:16:26.778Z,32.5
2016-10-12T12:17:37.272Z,33.59
2016-10-12T12:18:48.272Z,32.14
2016-10-12T12:19:58.848Z,32.07
2016-10-12T12:21:09.394Z,29.83
2016-10-12T12:22:19.940Z,30.33
2016-10-12T12:23:30.501Z,32.15
2016-10-12T12:24:41.023Z,30.7
2016-10-12T12:25:51.542Z,29.37
2016-10-12T12:27:02.046Z,28.81
2016-10-12T12:28:12.660Z,29.02
2016-10-12T12:29:23.171Z,30.25
2016-10-12T12:30:34.217Z,29.24
2016-10-12T12:31:45.134Z,31.27
2016-10-12T12:32:56.031Z,31.55
2016-10-12T12:34:06.646Z,31.93
2016-10-12T12:35:17.188Z,33.29
2016-10-12T12:36:27.715Z,33.75
2016-10-12T12:37:38.286Z,34.52
2016-10-12T12:38:48.789Z,33.75
2016-10-12T12:39:59.439Z,30.94
2016-10-12T12:41:09.999Z,30.96
2016-10-12T12:42:20.547Z,31.26
2016-10-12T12:43:31.121Z,32.5
2016-10-12T12:44:41.710Z,32.39
2016-10-12T12:45:52.745Z,31.32
2016-10-12T12:47:03.302Z,33.9
2016-10-12T12:48:14.283Z,32.32
2016-10-12T12:49:24.838Z,32.6
2016-10-12T12:50:35.383Z,33.1
2016-10-12T12:51:46.531Z,32.89
2016-10-12T12:52:57.130Z,32.32
2016-10-12T12:54:07.669Z,31.06
2016-10-12T12:55:18.234Z,32.25
2016-10-12T12:56:28.832Z,31.35
2016-10-12T12:57:39.400Z,30.5
2016-10-12T12:58:49.976Z,29.85
2016-10-12T13:00:00.570Z,28.19
2016-10-12T13:01:11.167Z,30.17
2016-10-12T13:02:21.712Z,29.85
2016-10-12T13:03:32.798Z,30.12
2016-10-12T13:04:43.353Z,31.19
2016-10-12T13:05:53.913Z,31.47
2016-10-12T13:07:04.510Z,31.63
2016-10-12T13:08:15.117Z,31.04
2016-10-12T13:09:25.682Z,32.81
2016-10-12T13:10:36.257Z,33.28
2016-10-12T13:11:46.834Z,31.52
2016-10-12T13:12:57.409Z,31.62
2016-10-12T13:14:07.993Z,30.85
2016-10-12T13:15:18.661Z,31.73
2016-10-12T13:16:29.245Z,32.48
2016-10-12T13:17:39.804Z,31.52
2016-10-12T13:18:50.360Z,31.57
2016-10-12T13:20:00.922Z,32.23
2016-10-12T13:21:11.565Z,30.18
2016-10-12T13:22:22.135Z,30.26
2016-10-12T13:23:32.712Z,31.34
2016-10-12T13:24:43.302Z,30.46
2016-10-12T13:25:53.857Z,30.19
2016-10-12T13:27:04.521Z,30.29
2016-10-12T13:28:15.124Z,30.77
2016-10-12T13:29:25.692Z,30.65
2016-10-12T13:30:36.222Z,29.41
2016-10-12T13:31:46.799Z,30.68
2016-10-12T13:32:57.329Z,31.93
2016-10-12T13:34:07.907Z,33.36
2016-10-12T13:35:18.438Z,32.48
2016-10-12T13:36:29.000Z,32.89
2016-10-12T13:37:39.560Z,30.72
2016-10-12T13:38:50.230Z,30.36
2016-10-12T13:40:01.282Z,29.7
2016-10-12T13:41:11.801Z,30
2016-10-12T13:42:22.363Z,30.1
2016-10-12T13:43:32.899Z,29.14
2016-10-12T13:44:43.570Z,30.68
2016-10-12T13:45:54.183Z,30.77
2016-10-12T13:47:04.786Z,32.29
2016-10-12T13:48:15.408Z,32.29
2016-10-12T13:49:26.024Z,31.6
2016-10-12T13:50:36.723Z,31.14
2016-10-12T13:51:47.325Z,29.69
2016-10-12T13:52:57.918Z,29.88
2016-10-12T13:54:08.518Z,30.19
2016-10-12T13:55:19.507Z,30.58
2016-10-12T13:56:30.109Z,31.06
2016-10-12T13:57:40.725Z,31.24
2016-10-12T13:58:51.314Z,31.24
2016-10-12T14:00:01.912Z,30.36
2016-10-12T14:01:12.504Z,31.26
2016-10-12T14:02:23.198Z,30.57
2016-10-12T14:03:33.808Z,32.71
2016-10-12T14:04:44.423Z,33.15
2016-10-12T14:05:55.025Z,31.8
2016-10-12T14:07:05.635Z,32.1
2016-10-12T14:08:16.344Z,30.93
2016-10-12T14:09:26.962Z,29.8
2016-10-12T14:10:37.573Z,30.87
2016-10-12T14:11:48.192Z,30.18
2016-10-12T14:12:58.790Z,30.47
2016-10-12T14:14:09.491Z,31.24
2016-10-12T14:15:20.085Z,32.2
2016-10-12T14:16:30.688Z,32.39
2016-10-12T14:17:41.293Z,32.19
2016-10-12T14:18:51.882Z,30.93
2016-10-12T14:20:02.486Z,29.88
2016-10-12T14:21:13.075Z,30.16
2016-10-12T14:22:23.667Z,29.98
2016-10-12T14:23:34.261Z,30.26
2016-10-12T14:24:44.817Z,29.97
2016-10-12T14:25:55.478Z,30.16
2016-10-12T14:27:06.023Z,29.88
2016-10-12T14:28:16.610Z,30.65
2016-10-12T14:29:27.155Z,29.98
2016-10-12T14:30:37.743Z,29.1
2016-10-12T14:31:48.393Z,28.93
2016-10-12T14:32:58.930Z,27.46
2016-10-12T14:34:09.866Z,28.45
2016-10-12T14:35:20.380Z,28.64
2016-10-12T14:36:30.924Z,29.88
2016-10-12T14:37:41.656Z,30.27
2016-10-12T14:38:52.223Z,28.72
2016-10-12T14:40:02.763Z,27.77
2016-10-12T14:41:13.308Z,26.51
2016-10-12T14:42:23.860Z,27.67
2016-10-12T14:43:34.494Z,26.8
2016-10-12T14:44:45.078Z,27.87
2016-10-12T14:45:55.665Z,29.22
2016-10-12T14:47:06.212Z,28.43
2016-10-12T14:48:16.721Z,28.92
2016-10-12T14:49:27.400Z,28.53
2016-10-12T14:50:37.997Z,28.79
2016-10-12T14:51:49.035Z,29.08
2016-10-12T14:52:59.628Z,28.51
2016-10-12T14:54:10.168Z,27.74
2016-10-12T14:55:20.947Z,28.92
2016-10-12T14:56:31.479Z,28.03
2016-10-12T14:57:42.028Z,27.08
2016-10-12T14:58:52.536Z,26.9
2016-10-12T15:00:03.071Z,26.89
2016-10-12T15:01:13.653Z,28.25
2016-10-12T15:02:24.217Z,27.07
2016-10-12T15:03:34.801Z,28.15
2016-10-12T15:04:45.830Z,28.43
2016-10-12T15:05:56.409Z,28.71
2016-10-12T15:07:07.136Z,27.74
2016-10-12T15:08:17.620Z,28.72
2016-10-12T15:09:28.208Z,28.99
2016-10-12T15:10:38.775Z,29.95
2016-10-12T15:11:49.306Z,28.99
2016-10-12T15:12:59.943Z,28.89